Terminal Aerodrome Forecast
Issued by NWS

Home | Current Version | Previous Version | Graphics & Text | Print | Product List | Glossary Off
Versions: 1 2 3 4 5 6 7 8 9 10 11 12 13 14 15 16 17

000
FTUS43 KGRB 291350 AAB
TAFATW
TAF AMD
KATW 291350Z 2914/3012 VRB03KT P6SM OVC005
     FM291600 13005KT P6SM BKN010 OVC023
     FM292100 15006KT P6SM FEW025 BKN050
     FM292300 VRB03KT P6SM FEW050
     FM300400 VRB03KT 3SM BR SKC
     FM301000 00000KT 1/2SM FG BKN002=

USA.gov is the U.S. government's official web portal to all federal, state and local government web resources and services.